Nearby METAR Reports

 

KPMD - Palmdale, California, USA
Distance from station: NNE 12mi, 19km
Updated: Thu, 22-Feb-2018 5:53pm PST
Overcast
Overcast
 Wind from SW
Wind: SW 17 mph , 28 km/h
Temperature: 46°F , 8°C
Wind Chill: 39°F , 4°C
Dew Point: 30°F , -1°C
Humidity: 53%
Barometer: 30.08 inHg , 1018.6 hPa
Clouds: Overcast
Visibility: 10 miles , 16 km
Cloud details: Mostly cloudy 6000 ft
Overcast 7000 ft
2018/02/23 01:53 KPMD 230153Z AUTO 23015KT 10SM BKN060 OVC070 08/M01 A3008 RMK AO2 PK WND 23027/0054 SLP190 T00831006
KWJF - Lancaster/Fox, California, USA
Distance from station: N 17mi, 27km
Updated: Thu, 22-Feb-2018 5:56pm PST
Clear
Clear
 Wind from W
Wind: W 14 mph , 22 km/h
Temperature: 45°F , 7°C
Wind Chill: 39°F , 4°C
Dew Point: 32°F , 0°C
Humidity: 61%
Barometer: 30.10 inHg , 1019.3 hPa
Clouds: Clear
Visibility: 10 miles , 16 km
2018/02/23 01:56 KWJF 230156Z 26012KT 10SM CLR 07/00 A3010 RMK AO2 SLP204 T00720000
 
KMWS - Mount Wilson, California, USA
Distance from station: SSE 18mi, 30km
Updated: Wed, 13-May-2015 6:45am PDT
NOT Current

 Wind from S
Wind: S 3 mph , 6 km/h, Gust: 5 mph , 7 km/h
Temperature: 43°F , 6°C
Dew Point: -0°F , -18°C
Humidity: 16%
2015/05/13 13:45 KMWS 131345Z 18003G04KT 06/M18 RMK SNOW DEPTH 1.00
KWHP - La / Whiteman, California, USA
Distance from station: SW 21mi, 34km
Updated: Thu, 22-Feb-2018 3:55pm PST
NOT Current
Mostly cloudy
Mostly cloudy
 Wind from SE
Wind: SE 12 mph , 19 km/h
Temperature: 55°F , 13°C
Dew Point: 36°F , 2°C
Humidity: 47%
Barometer: 30.16 inHg , 1021.3 hPa
Clouds: Mostly cloudy
Visibility: 10 miles , 16 km
Cloud details: Mostly cloudy 5000 ft
2018/02/22 23:55 KWHP 222355Z 140010KT 10SM BKN050 13/02 A3016
 
KBUR - Burbank, California, USA
Distance from station: SSW 22mi, 35km
Updated: Thu, 22-Feb-2018 5:53pm PST
Clear
Clear
 Wind from S
Wind: S 3 mph , 6 km/h
Temperature: 54°F , 12°C
Dew Point: 39°F , 4°C
Humidity: 58%
Barometer: 30.13 inHg , 1020.3 hPa
Clouds: Clear
Visibility: 10 miles , 16 km
2018/02/23 01:53 KBUR 230153Z 17003KT 10SM CLR 12/04 A3013 RMK AO2 SLP200 T01170044
KVNY - Van Nuys, California, USA
Distance from station: SW 25mi, 40km
Updated: Thu, 22-Feb-2018 5:51pm PST
Partly cloudy
Partly cloudy
 Wind from S
Wind: S 6 mph , 9 km/h
Temperature: 52°F , 11°C
Dew Point: 37°F , 3°C
Humidity: 58%
Barometer: 30.13 inHg , 1020.3 hPa
Clouds: Partly cloudy
Visibility: 10 miles , 16 km
Cloud details: Partly cloudy 4600 ft
2018/02/23 01:51 KVNY 230151Z 18005KT 10SM SCT046 11/03 A3013 RMK AO2 SLP203 T01110033
 
KEDW - Edwards Afb, California, USA
Distance from station: NNE 33mi, 53km
Updated: Thu, 22-Feb-2018 5:56pm PST
Few Clouds
Few Clouds
 Wind from WSW
Wind: WSW 16 mph , 26 km/h
Temperature: 48°F , 9°C
Wind Chill: 42°F , 6°C
Dew Point: 18°F , -8°C
Humidity: 29%
Barometer: 30.05 inHg , 1017.6 hPa
Clouds: Few Clouds
Visibility: 50 miles , 80 km
Cloud details: Few Clouds 6000 ft
2018/02/23 01:56 KEDW 230156Z 25014KT 50SM FEW060 09/M08 A3005 RMK AO2A PK WND 26028/09 SLP184 T00861080
KSMO - Santa Monica, California, USA
Distance from station: SSW 35mi, 57km
Updated: Thu, 22-Feb-2018 5:51pm PST
Clear
Clear
 Wind from WSW
Wind: WSW 9 mph , 15 km/h, Gust: 18 mph , 30 km/h
Temperature: 54°F , 12°C
Dew Point: 43°F , 6°C
Humidity: 67%
Barometer: 30.16 inHg , 1021.3 hPa
Clouds: Clear
Visibility: 10 miles , 16 km
2018/02/23 01:51 KSMO 230151Z 25008G16KT 10SM CLR 12/06 A3016 RMK AO2 SLP212 T01220056
 
KLAX - Los Angeles, California, USA
Distance from station: SSW 39mi, 63km
Updated: Thu, 22-Feb-2018 5:53pm PST
Few Clouds
Few Clouds
 Wind from W
Wind: W 20 mph , 31 km/h
Temperature: 55°F , 13°C
Dew Point: 41°F , 5°C
Humidity: 59%
Barometer: 30.16 inHg , 1021.3 hPa
Clouds: Few Clouds
Visibility: 10 miles , 16 km
Cloud details: Few Clouds 3500 ft
2018/02/23 01:53 KLAX 230153Z 27017KT 10SM FEW035 13/05 A3016 RMK AO2 SLP215 T01280050 $
KMHV - Mojave, California, USA
Distance from station: N 41mi, 66km
Updated: Thu, 22-Feb-2018 6:00pm PST
Partly cloudy
Partly cloudy
 Wind from W
Wind: W 20 mph , 31 km/h, Gust: 25 mph , 41 km/h
Temperature: 45°F , 7°C
Wind Chill: 37°F , 3°C
Dew Point: 21°F , -6°C
Humidity: 39%
Barometer: 30.06 inHg , 1017.9 hPa
Clouds: Partly cloudy
Visibility: 10 miles , 16 km
Cloud details: Partly cloudy 5000 ft
2018/02/23 02:00 KMHV 230200Z AUTO 28017G22KT 10SM SCT050 07/M06 A3006 RMK A01
 
KFUL - Fullerton, California, USA
Distance from station: SSE 44mi, 70km
Updated: Thu, 22-Feb-2018 5:53pm PST
Clear
Clear
 Wind from varies
Wind: varies 5 mph , 7 km/h
Temperature: 55°F , 13°C
Dew Point: 39°F , 4°C
Humidity: 55%
Barometer: 30.16 inHg , 1021.3 hPa
Clouds: Clear
Visibility: 10 miles , 16 km
2018/02/23 01:53 KFUL 230153Z VRB04KT 10SM CLR 13/04 A3016 RMK AO2 SLP213 T01280044
KONT - Ontario, California, USA
Distance from station: SE 45mi, 72km
Updated: Thu, 22-Feb-2018 5:53pm PST
Mostly cloudy
Mostly cloudy
 Wind from SW
Wind: SW 10 mph , 17 km/h
Temperature: 54°F , 12°C
Dew Point: 34°F , 1°C
Humidity: 47%
Barometer: 30.14 inHg , 1020.7 hPa
Clouds: Mostly cloudy
Visibility: 10 miles , 16 km
Cloud details: Few Clouds 4500 ft
Partly cloudy 5500 ft
Mostly cloudy 7000 ft
2018/02/23 01:53 KONT 230153Z 22009KT 10SM FEW045 SCT055 BKN070 12/01 A3014 RMK AO2 SLP211 T01170006
 
KLGB - Long Beach, California, USA
Distance from station: S 46mi, 74km
Updated: Thu, 22-Feb-2018 5:53pm PST
Clear
Clear
 Wind from W
Wind: W 8 mph , 13 km/h
Temperature: 57°F , 14°C
Dew Point: 39°F , 4°C
Humidity: 51%
Barometer: 30.17 inHg , 1021.7 hPa
Clouds: Clear
Visibility: 10 miles , 16 km
2018/02/23 01:53 KLGB 230153Z 28007KT 10SM CLR 14/04 A3017 RMK AO2 SLP215 T01390044 $
KVCV - Victorville, California, USA
Distance from station: E 46mi, 74km
Updated: Thu, 22-Feb-2018 5:46pm PST
Partly cloudy
Partly cloudy
 Wind from WSW
Wind: WSW 12 mph , 19 km/h
Temperature: 46°F , 8°C
Wind Chill: 40°F , 4°C
Dew Point: 21°F , -6°C
Humidity: 37%
Barometer: 30.07 inHg , 1018.3 hPa
Clouds: Partly cloudy
Visibility: 10 miles , 16 km
Cloud details: Partly cloudy 6000 ft
2018/02/23 01:46 KVCV 230146Z 25010KT 10SM SCT060 08/M06 A3007
 
KTSP - Tehachapi, California, USA
Distance from station: NNW 48mi, 77km
Updated: Thu, 22-Feb-2018 6:15pm PST
Clear
Clear
 Wind from NW
Wind: NW 18 mph , 30 km/h
Temperature: 36°F , 2°C
Wind Chill: 26°F , -3°C
Dew Point: 19°F , -7°C
Humidity: 52%
Barometer: 30.05 inHg , 1017.6 hPa
Clouds: Clear
Visibility: 10 miles , 16 km
2018/02/23 02:15 KTSP 230215Z AUTO 31016KT 10SM CLR 02/M07 A3005 RMK AO2